sensor_id;sensor_type;location;lat;lon;timestamp;pressure;altitude;pressure_sealevel;temperature;humidity
55610;BME280;41486;52.502;13.486;2023-02-16T00:01:49;101788.25;;;1.80;100.00
55610;BME280;41486;52.502;13.486;2023-02-16T00:04:20;101795.19;;;1.79;100.00
55610;BME280;41486;52.502;13.486;2023-02-16T00:06:52;101789.41;;;1.65;100.00
55610;BME280;41486;52.502;13.486;2023-02-16T00:09:22;101787.03;;;1.55;100.00
55610;BME280;41486;52.502;13.486;2023-02-16T00:11:51;101792.81;;;1.67;100.00
55610;BME280;41486;52.502;13.486;2023-02-16T00:14:38;101787.41;;;1.78;100.00
55610;BME280;41486;52.502;13.486;2023-02-16T00:17:09;101792.50;;;1.84;100.00
55610;BME280;41486;52.502;13.486;2023-02-16T00:19:40;101791.25;;;1.60;100.00
55610;BME280;41486;52.502;13.486;2023-02-16T00:22:08;101799.81;;;1.63;100.00
55610;BME280;41486;52.502;13.486;2023-02-16T00:24:37;101793.72;;;1.66;100.00
55610;BME280;41486;52.502;13.486;2023-02-16T00:27:11;101792.00;;;1.65;100.00
55610;BME280;41486;52.502;13.486;2023-02-16T00:29:39;101797.88;;;1.73;100.00
55610;BME280;41486;52.502;13.486;2023-02-16T00:32:11;101795.19;;;1.78;100.00
55610;BME280;41486;52.502;13.486;2023-02-16T00:34:41;101788.38;;;1.73;100.00
55610;BME280;41486;52.502;13.486;2023-02-16T00:37:11;101794.25;;;1.82;100.00
55610;BME280;41486;52.502;13.486;2023-02-16T00:39:41;101797.59;;;1.87;100.00
55610;BME280;41486;52.502;13.486;2023-02-16T00:42:13;101795.03;;;1.85;100.00
55610;BME280;41486;52.502;13.486;2023-02-16T00:44:45;101791.47;;;1.91;100.00
55610;BME280;41486;52.502;13.486;2023-02-16T00:47:18;101785.41;;;1.92;100.00
55610;BME280;41486;52.502;13.486;2023-02-16T00:49:50;101792.38;;;1.88;100.00
55610;BME280;41486;52.502;13.486;2023-02-16T00:52:31;101792.41;;;1.87;100.00
55610;BME280;41486;52.502;13.486;2023-02-16T00:55:01;101786.75;;;1.68;100.00
55610;BME280;41486;52.502;13.486;2023-02-16T00:57:34;101788.47;;;1.69;100.00
55610;BME280;41486;52.502;13.486;2023-02-16T01:00:07;101786.75;;;1.68;100.00
55610;BME280;41486;52.502;13.486;2023-02-16T01:02:38;101785.22;;;1.57;100.00
55610;BME280;41486;52.502;13.486;2023-02-16T01:05:08;101787.03;;;1.55;100.00
55610;BME280;41486;52.502;13.486;2023-02-16T01:07:35;101785.13;;;1.64;100.00
55610;BME280;41486;52.502;13.486;2023-02-16T01:10:22;101791.06;;;1.69;100.00
55610;BME280;41486;52.502;13.486;2023-02-16T01:13:09;101789.22;;;1.74;100.00
55610;BME280;41486;52.502;13.486;2023-02-16T01:15:38;101784.66;;;1.85;100.00
55610;BME280;41486;52.502;13.486;2023-02-16T01:18:06;101785.41;;;1.91;100.00
55610;BME280;41486;52.502;13.486;2023-02-16T01:20:35;101785.50;;;1.87;100.00
55610;BME280;41486;52.502;13.486;2023-02-16T01:23:06;101776.03;;;1.83;100.00
55610;BME280;41486;52.502;13.486;2023-02-16T01:25:34;101773.19;;;1.96;100.00
55610;BME280;41486;52.502;13.486;2023-02-16T01:28:08;101773.19;;;1.96;100.00
55610;BME280;41486;52.502;13.486;2023-02-16T01:30:43;101777.91;;;1.78;100.00
55610;BME280;41486;52.502;13.486;2023-02-16T01:33:11;101772.38;;;1.94;100.00
55610;BME280;41486;52.502;13.486;2023-02-16T01:35:41;101772.81;;;1.73;100.00
55610;BME280;41486;52.502;13.486;2023-02-16T01:38:15;101773.75;;;1.69;100.00
55610;BME280;41486;52.502;13.486;2023-02-16T01:40:51;101772.75;;;1.75;100.00
55610;BME280;41486;52.502;13.486;2023-02-16T01:43:26;101766.13;;;1.62;100.00
55610;BME280;41486;52.502;13.486;2023-02-16T01:45:58;101765.25;;;1.61;100.00
55610;BME280;41486;52.502;13.486;2023-02-16T01:48:30;101759.63;;;1.83;100.00
55610;BME280;41486;52.502;13.486;2023-02-16T01:51:05;101761.59;;;1.71;100.00
55610;BME280;41486;52.502;13.486;2023-02-16T01:53:37;101763.69;;;1.54;100.00
55610;BME280;41486;52.502;13.486;2023-02-16T01:56:14;101764.50;;;1.12;100.00
55610;BME280;41486;52.502;13.486;2023-02-16T01:58:46;101758.94;;;1.32;100.00
55610;BME280;41486;52.502;13.486;2023-02-16T02:01:36;101758.19;;;1.25;100.00
55610;BME280;41486;52.502;13.486;2023-02-16T02:04:11;101761.38;;;1.40;100.00
55610;BME280;41486;52.502;13.486;2023-02-16T02:07:01;101763.00;;;1.00;100.00
55610;BME280;41486;52.502;13.486;2023-02-16T02:09:35;101762.03;;;1.06;100.00
55610;BME280;41486;52.502;13.486;2023-02-16T02:12:09;101764.75;;;1.00;100.00
55610;BME280;41486;52.502;13.486;2023-02-16T02:14:41;101754.03;;;1.17;100.00
55610;BME280;41486;52.502;13.486;2023-02-16T02:17:12;101761.94;;;1.10;100.00
55610;BME280;41486;52.502;13.486;2023-02-16T02:19:49;101760.22;;;1.09;100.00
55610;BME280;41486;52.502;13.486;2023-02-16T02:22:53;101754.00;;;1.20;100.00
55610;BME280;41486;52.502;13.486;2023-02-16T02:29:05;101742.94;;;1.10;100.00
55610;BME280;41486;52.502;13.486;2023-02-16T02:31:47;101751.63;;;1.07;100.00
55610;BME280;41486;52.502;13.486;2023-02-16T02:34:21;101763.94;;;0.96;100.00
55610;BME280;41486;52.502;13.486;2023-02-16T02:36:59;101741.88;;;0.73;100.00
55610;BME280;41486;52.502;13.486;2023-02-16T02:39:35;101751.78;;;1.00;100.00
55610;BME280;41486;52.502;13.486;2023-02-16T02:42:10;101755.09;;;1.08;100.00
55610;BME280;41486;52.502;13.486;2023-02-16T02:44:56;101739.00;;;0.90;100.00
55610;BME280;41486;52.502;13.486;2023-02-16T02:47:37;101740.50;;;1.02;100.00
55610;BME280;41486;52.502;13.486;2023-02-16T02:50:30;101743.47;;;0.82;100.00
55610;BME280;41486;52.502;13.486;2023-02-16T02:53:05;101740.34;;;0.63;100.00
55610;BME280;41486;52.502;13.486;2023-02-16T02:55:37;101734.97;;;0.74;100.00
55610;BME280;41486;52.502;13.486;2023-02-16T02:58:26;101732.97;;;0.88;100.00
55610;BME280;41486;52.502;13.486;2023-02-16T03:01:19;101729.25;;;1.03;100.00
55610;BME280;41486;52.502;13.486;2023-02-16T03:03:51;101728.25;;;1.09;100.00
55610;BME280;41486;52.502;13.486;2023-02-16T03:06:23;101731.53;;;1.19;100.00
55610;BME280;41486;52.502;13.486;2023-02-16T03:08:55;101724.81;;;1.08;100.00
55610;BME280;41486;52.502;13.486;2023-02-16T03:11:27;101721.66;;;0.94;100.00
55610;BME280;41486;52.502;13.486;2023-02-16T03:14:15;101724.13;;;1.00;100.00
55610;BME280;41486;52.502;13.486;2023-02-16T03:16:48;101733.97;;;0.81;100.00
55610;BME280;41486;52.502;13.486;2023-02-16T03:19:31;101731.25;;;0.87;100.00
55610;BME280;41486;52.502;13.486;2023-02-16T03:22:17;101723.88;;;1.13;100.00
55610;BME280;41486;52.502;13.486;2023-02-16T03:25:03;101719.13;;;0.89;100.00
55610;BME280;41486;52.502;13.486;2023-02-16T03:27:49;101733.97;;;0.81;100.00
55610;BME280;41486;52.502;13.486;2023-02-16T03:30:35;101719.34;;;0.77;100.00
55610;BME280;41486;52.502;13.486;2023-02-16T03:33:05;101718.94;;;1.00;100.00
55610;BME280;41486;52.502;13.486;2023-02-16T03:35:34;101733.97;;;0.81;100.00
55610;BME280;41486;52.502;13.486;2023-02-16T03:38:02;101728.94;;;0.72;100.00
55610;BME280;41486;52.502;13.486;2023-02-16T03:40:32;101730.84;;;0.62;100.00
55610;BME280;41486;52.502;13.486;2023-02-16T03:43:02;101733.47;;;0.59;100.00
55610;BME280;41486;52.502;13.486;2023-02-16T03:45:33;101731.72;;;0.61;100.00
55610;BME280;41486;52.502;13.486;2023-02-16T03:48:03;101734.94;;;0.75;100.00
55610;BME280;41486;52.502;13.486;2023-02-16T03:50:32;101733.97;;;0.81;100.00
55610;BME280;41486;52.502;13.486;2023-02-16T03:53:00;101727.84;;;0.85;100.00
55610;BME280;41486;52.502;13.486;2023-02-16T03:55:35;101722.66;;;0.85;100.00
55610;BME280;41486;52.502;13.486;2023-02-16T03:58:03;101723.19;;;1.03;100.00
55610;BME280;41486;52.502;13.486;2023-02-16T04:00:32;101724.53;;;0.77;100.00
55610;BME280;41486;52.502;13.486;2023-02-16T04:03:00;101721.00;;;0.81;100.00
55610;BME280;41486;52.502;13.486;2023-02-16T04:05:28;101726.31;;;0.75;100.00
55610;BME280;41486;52.502;13.486;2023-02-16T04:07:58;101722.00;;;0.74;100.00
55610;BME280;41486;52.502;13.486;2023-02-16T04:10:26;101725.44;;;0.76;100.00
55610;BME280;41486;52.502;13.486;2023-02-16T04:12:54;101728.88;;;0.76;100.00
55610;BME280;41486;52.502;13.486;2023-02-16T04:15:23;101721.28;;;0.66;100.00
55610;BME280;41486;52.502;13.486;2023-02-16T04:17:53;101727.38;;;0.61;100.00
55610;BME280;41486;52.502;13.486;2023-02-16T04:20:24;101733.28;;;0.70;100.00
55610;BME280;41486;52.502;13.486;2023-02-16T04:22:52;101717.47;;;0.85;100.00
55610;BME280;41486;52.502;13.486;2023-02-16T04:25:22;101723.53;;;0.84;100.00
55610;BME280;41486;52.502;13.486;2023-02-16T04:27:50;101722.88;;;0.73;100.00
55610;BME280;41486;52.502;13.486;2023-02-16T04:30:21;101722.34;;;1.01;100.00
55610;BME280;41486;52.502;13.486;2023-02-16T04:32:49;101720.84;;;0.89;100.00
55610;BME280;41486;52.502;13.486;2023-02-16T04:35:18;101720.81;;;0.92;100.00
55610;BME280;41486;52.502;13.486;2023-02-16T04:37:46;101722.09;;;1.15;100.00
55610;BME280;41486;52.502;13.486;2023-02-16T04:40:16;101724.44;;;0.82;100.00
55610;BME280;41486;52.502;13.486;2023-02-16T04:42:46;101722.00;;;0.72;100.00
55610;BME280;41486;52.502;13.486;2023-02-16T04:45:14;101725.19;;;0.88;100.00
55610;BME280;41486;52.502;13.486;2023-02-16T04:47:42;101719.47;;;0.71;100.00
55610;BME280;41486;52.502;13.486;2023-02-16T04:50:11;101719.91;;;0.94;100.00
55610;BME280;41486;52.502;13.486;2023-02-16T04:52:39;101721.97;;;0.75;100.00
55610;BME280;41486;52.502;13.486;2023-02-16T04:55:11;101719.25;;;0.83;100.00
55610;BME280;41486;52.502;13.486;2023-02-16T04:57:39;101716.94;;;0.66;100.00
55610;BME280;41486;52.502;13.486;2023-02-16T05:00:09;101716.03;;;0.69;100.00
55610;BME280;41486;52.502;13.486;2023-02-16T05:02:38;101711.09;;;0.56;100.00
55610;BME280;41486;52.502;13.486;2023-02-16T05:05:07;101711.94;;;0.57;100.00
55610;BME280;41486;52.502;13.486;2023-02-16T05:07:35;101708.53;;;0.53;100.00
55610;BME280;41486;52.502;13.486;2023-02-16T05:10:04;101707.81;;;0.45;100.00
55610;BME280;41486;52.502;13.486;2023-02-16T05:12:33;101708.69;;;0.45;100.00
55610;BME280;41486;52.502;13.486;2023-02-16T05:15:20;101713.69;;;0.56;100.00
55610;BME280;41486;52.502;13.486;2023-02-16T05:17:48;101719.09;;;0.42;100.00
55610;BME280;41486;52.502;13.486;2023-02-16T05:20:16;101719.19;;;0.36;100.00
55610;BME280;41486;52.502;13.486;2023-02-16T05:22:44;101729.50;;;0.38;100.00
55610;BME280;41486;52.502;13.486;2023-02-16T05:25:12;101726.91;;;0.39;100.00
55610;BME280;41486;52.502;13.486;2023-02-16T05:27:40;101737.28;;;0.38;100.00
55610;BME280;41486;52.502;13.486;2023-02-16T05:30:09;101734.63;;;0.42;100.00
55610;BME280;41486;52.502;13.486;2023-02-16T05:32:39;101736.97;;;0.56;100.00
55610;BME280;41486;52.502;13.486;2023-02-16T05:35:07;101735.41;;;0.46;100.00
55610;BME280;41486;52.502;13.486;2023-02-16T05:37:35;101732.91;;;0.43;100.00
55610;BME280;41486;52.502;13.486;2023-02-16T05:40:04;101734.84;;;0.28;100.00
55610;BME280;41486;52.502;13.486;2023-02-16T05:42:32;101735.66;;;0.30;100.00
55610;BME280;41486;52.502;13.486;2023-02-16T05:45:00;101720.94;;;0.34;100.00
55610;BME280;41486;52.502;13.486;2023-02-16T05:47:29;101721.72;;;0.41;100.00
55610;BME280;41486;52.502;13.486;2023-02-16T05:49:58;101717.13;;;0.55;100.00
55610;BME280;41486;52.502;13.486;2023-02-16T05:52:26;101718.31;;;0.37;100.00
55610;BME280;41486;52.502;13.486;2023-02-16T05:54:54;101720.78;;;0.43;100.00
55610;BME280;41486;52.502;13.486;2023-02-16T05:57:22;101718.09;;;0.50;100.00
55610;BME280;41486;52.502;13.486;2023-02-16T05:59:50;101718.16;;;0.46;100.00
55610;BME280;41486;52.502;13.486;2023-02-16T06:02:18;101730.31;;;0.43;100.00
55610;BME280;41486;52.502;13.486;2023-02-16T06:04:46;101731.06;;;0.48;100.00
55610;BME280;41486;52.502;13.486;2023-02-16T06:07:15;101739.56;;;0.56;100.00
55610;BME280;41486;52.502;13.486;2023-02-16T06:09:43;101742.06;;;0.62;100.00
55610;BME280;41486;52.502;13.486;2023-02-16T06:12:11;101738.78;;;0.53;100.00
55610;BME280;41486;52.502;13.486;2023-02-16T06:14:40;101738.69;;;0.57;100.00
55610;BME280;41486;52.502;13.486;2023-02-16T06:17:09;101734.38;;;0.58;100.00
55610;BME280;41486;52.502;13.486;2023-02-16T06:19:37;101729.25;;;0.53;100.00
55610;BME280;41486;52.502;13.486;2023-02-16T06:22:05;101735.34;;;0.51;100.00
55610;BME280;41486;52.502;13.486;2023-02-16T06:24:34;101737.94;;;0.51;100.00
55610;BME280;41486;52.502;13.486;2023-02-16T06:27:02;101746.72;;;0.40;100.00
55610;BME280;41486;52.502;13.486;2023-02-16T06:29:31;101740.72;;;0.40;100.00
55610;BME280;41486;52.502;13.486;2023-02-16T06:31:59;101740.75;;;0.38;100.00
55610;BME280;41486;52.502;13.486;2023-02-16T06:34:27;101742.47;;;0.38;100.00
55610;BME280;41486;52.502;13.486;2023-02-16T06:36:55;101745.84;;;0.43;100.00
55610;BME280;41486;52.502;13.486;2023-02-16T06:39:23;101747.47;;;0.50;100.00
55610;BME280;41486;52.502;13.486;2023-02-16T06:41:53;101748.44;;;0.41;100.00
55610;BME280;41486;52.502;13.486;2023-02-16T06:44:21;101742.31;;;0.47;100.00
55610;BME280;41486;52.502;13.486;2023-02-16T06:46:49;101749.25;;;0.45;100.00
55610;BME280;41486;52.502;13.486;2023-02-16T06:49:20;101751.78;;;0.48;100.00
55610;BME280;41486;52.502;13.486;2023-02-16T06:51:49;101756.75;;;0.62;100.00
55610;BME280;41486;52.502;13.486;2023-02-16T06:54:17;101755.34;;;0.44;100.00
55610;BME280;41486;52.502;13.486;2023-02-16T06:56:45;101751.66;;;0.57;100.00
55610;BME280;41486;52.502;13.486;2023-02-16T06:59:15;101756.84;;;0.57;100.00
55610;BME280;41486;52.502;13.486;2023-02-16T07:01:43;101751.75;;;0.50;100.00
55610;BME280;41486;52.502;13.486;2023-02-16T07:04:11;101752.53;;;0.56;100.00
55610;BME280;41486;52.502;13.486;2023-02-16T07:06:40;101751.25;;;0.81;100.00
55610;BME280;41486;52.502;13.486;2023-02-16T07:09:08;101752.88;;;0.88;100.00
55610;BME280;41486;52.502;13.486;2023-02-16T07:11:38;101760.78;;;0.78;100.00
55610;BME280;41486;52.502;13.486;2023-02-16T07:14:06;101759.53;;;1.01;100.00
55610;BME280;41486;52.502;13.486;2023-02-16T07:16:36;101758.13;;;0.83;100.00
55610;BME280;41486;52.502;13.486;2023-02-16T07:19:04;101760.66;;;0.86;100.00
55610;BME280;41486;52.502;13.486;2023-02-16T07:21:33;101751.59;;;1.10;100.00
55610;BME280;41486;52.502;13.486;2023-02-16T07:24:01;101758.59;;;1.04;100.00
55610;BME280;41486;52.502;13.486;2023-02-16T07:26:29;101749.34;;;0.90;100.00
55610;BME280;41486;52.502;13.486;2023-02-16T07:28:57;101755.25;;;0.97;100.00
55610;BME280;41486;52.502;13.486;2023-02-16T07:31:26;101748.19;;;1.07;100.00
55610;BME280;41486;52.502;13.486;2023-02-16T07:33:55;101752.47;;;1.09;100.00
55610;BME280;41486;52.502;13.486;2023-02-16T07:36:23;101752.03;;;0.86;100.00
55610;BME280;41486;52.502;13.486;2023-02-16T07:38:52;101748.16;;;1.08;100.00
55610;BME280;41486;52.502;13.486;2023-02-16T07:41:20;101740.13;;;1.22;100.00
55610;BME280;41486;52.502;13.486;2023-02-16T07:43:49;101739.16;;;1.28;100.00
55610;BME280;41486;52.502;13.486;2023-02-16T07:46:17;101740.03;;;1.25;100.00
55610;BME280;41486;52.502;13.486;2023-02-16T07:48:46;101743.34;;;1.34;100.00
55610;BME280;41486;52.502;13.486;2023-02-16T07:51:21;101733.09;;;1.28;100.00
55610;BME280;41486;52.502;13.486;2023-02-16T07:53:49;101742.41;;;1.38;100.00
55610;BME280;41486;52.502;13.486;2023-02-16T07:56:19;101754.31;;;1.47;100.00
55610;BME280;41486;52.502;13.486;2023-02-16T07:58:47;101746.41;;;1.53;100.00
55610;BME280;41486;52.502;13.486;2023-02-16T08:01:16;101744.53;;;1.60;100.00
55610;BME280;41486;52.502;13.486;2023-02-16T08:03:47;101739.53;;;1.50;100.00
55610;BME280;41486;52.502;13.486;2023-02-16T08:06:15;101745.22;;;1.68;100.00
55610;BME280;41486;52.502;13.486;2023-02-16T08:08:45;101752.97;;;1.71;100.00
55610;BME280;41486;52.502;13.486;2023-02-16T08:11:15;101759.69;;;1.80;100.00
55610;BME280;41486;52.502;13.486;2023-02-16T08:13:44;101756.16;;;1.84;100.00
55610;BME280;41486;52.502;13.486;2023-02-16T08:16:14;101752.50;;;1.93;100.00
55610;BME280;41486;52.502;13.486;2023-02-16T08:18:42;101750.56;;;2.01;100.00
55610;BME280;41486;52.502;13.486;2023-02-16T08:21:13;101759.00;;;2.11;100.00
55610;BME280;41486;52.502;13.486;2023-02-16T08:23:43;101756.16;;;2.21;100.00
55610;BME280;41486;52.502;13.486;2023-02-16T08:26:15;101757.03;;;2.20;100.00
55610;BME280;41486;52.502;13.486;2023-02-16T08:28:45;101756.69;;;2.36;100.00
55610;BME280;41486;52.502;13.486;2023-02-16T08:31:14;101760.28;;;2.30;100.00
55610;BME280;41486;52.502;13.486;2023-02-16T08:33:42;101764.50;;;2.36;100.00
55610;BME280;41486;52.502;13.486;2023-02-16T08:36:15;101762.47;;;2.47;100.00
55610;BME280;41486;52.502;13.486;2023-02-16T08:38:44;101757.00;;;2.60;100.00
55610;BME280;41486;52.502;13.486;2023-02-16T08:41:12;101766.09;;;2.76;100.00
55610;BME280;41486;52.502;13.486;2023-02-16T08:43:41;101765.06;;;2.82;100.00
55610;BME280;41486;52.502;13.486;2023-02-16T08:46:09;101758.81;;;2.89;100.00
55610;BME280;41486;52.502;13.486;2023-02-16T08:48:37;101752.44;;;3.01;100.00
55610;BME280;41486;52.502;13.486;2023-02-16T08:51:06;101754.50;;;3.21;100.00
55610;BME280;41486;52.502;13.486;2023-02-16T08:53:35;101747.38;;;3.28;100.00
55610;BME280;41486;52.502;13.486;2023-02-16T08:56:04;101746.31;;;3.35;100.00
55610;BME280;41486;52.502;13.486;2023-02-16T08:58:32;101739.09;;;3.45;100.00
55610;BME280;41486;52.502;13.486;2023-02-16T09:01:04;101733.66;;;3.53;100.00
55610;BME280;41486;52.502;13.486;2023-02-16T09:03:33;101747.00;;;3.72;100.00
55610;BME280;41486;52.502;13.486;2023-02-16T09:06:04;101734.53;;;3.82;100.00
55610;BME280;41486;52.502;13.486;2023-02-16T09:08:32;101734.81;;;4.01;100.00
55610;BME280;41486;52.502;13.486;2023-02-16T09:11:04;101732.28;;;3.99;100.00
55610;BME280;41486;52.502;13.486;2023-02-16T09:13:32;101735.41;;;4.10;100.00
55610;BME280;41486;52.502;13.486;2023-02-16T09:16:02;101739.97;;;4.31;100.00
55610;BME280;41486;52.502;13.486;2023-02-16T09:18:32;101723.03;;;4.44;100.00
55610;BME280;41486;52.502;13.486;2023-02-16T09:21:03;101721.69;;;4.57;100.00
55610;BME280;41486;52.502;13.486;2023-02-16T09:23:32;101732.78;;;4.64;100.00
55610;BME280;41486;52.502;13.486;2023-02-16T09:26:01;101734.41;;;4.68;100.00
55610;BME280;41486;52.502;13.486;2023-02-16T09:28:33;101735.22;;;4.94;100.00
55610;BME280;41486;52.502;13.486;2023-02-16T09:31:07;101734.47;;;5.16;100.00
55610;BME280;41486;52.502;13.486;2023-02-16T09:33:37;101733.44;;;5.20;100.00
55610;BME280;41486;52.502;13.486;2023-02-16T09:36:07;101737.13;;;5.38;100.00
55610;BME280;41486;52.502;13.486;2023-02-16T09:38:37;101733.78;;;5.58;99.40
55610;BME280;41486;52.502;13.486;2023-02-16T09:41:06;101738.59;;;5.69;98.94
55610;BME280;41486;52.502;13.486;2023-02-16T09:43:44;101735.41;;;5.84;98.24
55610;BME280;41486;52.502;13.486;2023-02-16T09:46:16;101731.66;;;5.92;96.91
55610;BME280;41486;52.502;13.486;2023-02-16T09:48:50;101740.78;;;6.04;96.64
55610;BME280;41486;52.502;13.486;2023-02-16T09:51:21;101737.56;;;6.19;96.08
55610;BME280;41486;52.502;13.486;2023-02-16T09:54:06;101737.78;;;6.35;94.07
55610;BME280;41486;52.502;13.486;2023-02-16T09:56:45;101727.06;;;6.41;93.62
55610;BME280;41486;52.502;13.486;2023-02-16T09:59:26;101723.22;;;6.50;91.88
55610;BME280;41486;52.502;13.486;2023-02-16T10:02:19;101724.56;;;6.60;91.44
55610;BME280;41486;52.502;13.486;2023-02-16T10:05:04;101726.34;;;6.79;90.24
55610;BME280;41486;52.502;13.486;2023-02-16T10:07:46;101728.38;;;6.93;89.05
55610;BME280;41486;52.502;13.486;2023-02-16T10:10:21;101736.47;;;7.07;89.18
55610;BME280;41486;52.502;13.486;2023-02-16T10:12:54;101729.88;;;6.99;87.82
55610;BME280;41486;52.502;13.486;2023-02-16T10:15:25;101726.59;;;7.14;86.84
55610;BME280;41486;52.502;13.486;2023-02-16T10:17:58;101720.47;;;7.34;85.31
55610;BME280;41486;52.502;13.486;2023-02-16T10:20:33;101726.47;;;7.36;84.71
55610;BME280;41486;52.502;13.486;2023-02-16T10:23:07;101723.72;;;7.58;84.57
55610;BME280;41486;52.502;13.486;2023-02-16T10:25:42;101731.53;;;7.78;83.49
55610;BME280;41486;52.502;13.486;2023-02-16T10:28:15;101726.09;;;7.82;81.70
55610;BME280;41486;52.502;13.486;2023-02-16T10:30:48;101729.16;;;7.92;81.96
55610;BME280;41486;52.502;13.486;2023-02-16T10:33:29;101724.44;;;7.99;81.40
55610;BME280;41486;52.502;13.486;2023-02-16T10:36:13;101731.47;;;7.98;80.39
55610;BME280;41486;52.502;13.486;2023-02-16T10:38:48;101725.72;;;8.27;79.62
55610;BME280;41486;52.502;13.486;2023-02-16T10:41:28;101730.97;;;8.27;79.16
55610;BME280;41486;52.502;13.486;2023-02-16T10:44:03;101723.97;;;8.45;78.28
55610;BME280;41486;52.502;13.486;2023-02-16T10:46:58;101705.69;;;8.43;76.62
55610;BME280;41486;52.502;13.486;2023-02-16T10:49:29;101707.94;;;8.51;76.36
55610;BME280;41486;52.502;13.486;2023-02-16T10:52:00;101704.47;;;8.50;75.64
55610;BME280;41486;52.502;13.486;2023-02-16T10:54:30;101699.22;;;8.50;74.94
55610;BME280;41486;52.502;13.486;2023-02-16T10:57:01;101700.38;;;8.62;74.48
55610;BME280;41486;52.502;13.486;2023-02-16T10:59:36;101701.09;;;8.82;75.50
55610;BME280;41486;52.502;13.486;2023-02-16T11:02:16;101698.94;;;8.90;73.05
55610;BME280;41486;52.502;13.486;2023-02-16T11:04:47;101699.81;;;8.91;72.83
55610;BME280;41486;52.502;13.486;2023-02-16T11:07:22;101701.63;;;9.06;71.34
55610;BME280;41486;52.502;13.486;2023-02-16T11:09:52;101694.66;;;9.05;70.78
55610;BME280;41486;52.502;13.486;2023-02-16T11:12:26;101694.81;;;9.02;71.70
55610;BME280;41486;52.502;13.486;2023-02-16T11:14:58;101692.47;;;9.13;72.07
55610;BME280;41486;52.502;13.486;2023-02-16T11:17:31;101697.06;;;9.26;69.73
55610;BME280;41486;52.502;13.486;2023-02-16T11:20:00;101694.03;;;9.34;69.38
55610;BME280;41486;52.502;13.486;2023-02-16T11:22:35;101699.28;;;9.50;68.70
55610;BME280;41486;52.502;13.486;2023-02-16T11:25:20;101696.25;;;9.57;68.19
55610;BME280;41486;52.502;13.486;2023-02-16T11:27:51;101689.88;;;9.45;68.67
55610;BME280;41486;52.502;13.486;2023-02-16T11:30:27;101686.06;;;9.35;69.33
55610;BME280;41486;52.502;13.486;2023-02-16T11:32:57;101687.09;;;9.49;69.26
55610;BME280;41486;52.502;13.486;2023-02-16T11:35:26;101682.59;;;9.51;68.44
55610;BME280;41486;52.502;13.486;2023-02-16T11:37:58;101678.53;;;9.61;68.07
55610;BME280;41486;52.502;13.486;2023-02-16T11:40:28;101677.81;;;9.89;67.31
55610;BME280;41486;52.502;13.486;2023-02-16T11:42:59;101676.25;;;10.17;65.24
55610;BME280;41486;52.502;13.486;2023-02-16T11:45:30;101673.81;;;10.29;63.55
55610;BME280;41486;52.502;13.486;2023-02-16T11:48:02;101678.81;;;10.93;60.69
55610;BME280;41486;52.502;13.486;2023-02-16T11:50:36;101675.22;;;11.08;59.01
55610;BME280;41486;52.502;13.486;2023-02-16T11:53:24;101672.97;;;11.58;56.91
55610;BME280;41486;52.502;13.486;2023-02-16T11:56:15;101669.88;;;11.24;57.23
55610;BME280;41486;52.502;13.486;2023-02-16T11:58:44;101668.06;;;10.52;60.84
55610;BME280;41486;52.502;13.486;2023-02-16T12:01:39;101664.66;;;10.50;61.35
55610;BME280;41486;52.502;13.486;2023-02-16T12:04:18;101652.91;;;10.41;60.94
55610;BME280;41486;52.502;13.486;2023-02-16T12:06:57;101654.06;;;10.37;61.37
55610;BME280;41486;52.502;13.486;2023-02-16T12:09:35;101655.84;;;10.66;60.13
55610;BME280;41486;52.502;13.486;2023-02-16T12:12:12;101650.69;;;10.64;60.28
55610;BME280;41486;52.502;13.486;2023-02-16T12:14:49;101649.00;;;10.78;59.23
55610;BME280;41486;52.502;13.486;2023-02-16T12:17:28;101657.91;;;10.61;60.17
55610;BME280;41486;52.502;13.486;2023-02-16T12:20:04;101647.22;;;10.93;59.85
55610;BME280;41486;52.502;13.486;2023-02-16T12:22:45;101643.19;;;11.01;58.54
55610;BME280;41486;52.502;13.486;2023-02-16T12:25:24;101640.38;;;11.32;58.52
55610;BME280;41486;52.502;13.486;2023-02-16T12:27:59;101635.75;;;11.63;55.93
55610;BME280;41486;52.502;13.486;2023-02-16T12:30:38;101640.97;;;11.64;56.63
55610;BME280;41486;52.502;13.486;2023-02-16T12:33:25;101644.59;;;11.76;55.60
55610;BME280;41486;52.502;13.486;2023-02-16T12:38:55;101640.09;;;13.82;50.37
55610;BME280;41486;52.502;13.486;2023-02-16T12:41:40;101631.75;;;15.03;46.54
55610;BME280;41486;52.502;13.486;2023-02-16T12:44:14;101638.47;;;15.30;45.05
55610;BME280;41486;52.502;13.486;2023-02-16T12:46:46;101642.94;;;15.18;44.69
55610;BME280;41486;52.502;13.486;2023-02-16T12:49:19;101644.16;;;14.69;46.02
55610;BME280;41486;52.502;13.486;2023-02-16T12:51:52;101632.91;;;13.84;47.93
55610;BME280;41486;52.502;13.486;2023-02-16T12:54:27;101634.53;;;13.98;47.63
55610;BME280;41486;52.502;13.486;2023-02-16T12:57:00;101635.13;;;13.66;48.44
55610;BME280;41486;52.502;13.486;2023-02-16T12:59:36;101631.81;;;13.86;48.27
55610;BME280;41486;52.502;13.486;2023-02-16T13:02:14;101632.13;;;13.09;50.52
55610;BME280;41486;52.502;13.486;2023-02-16T13:04:47;101626.44;;;12.51;51.85
55610;BME280;41486;52.502;13.486;2023-02-16T13:07:21;101628.06;;;13.53;49.87
55610;BME280;41486;52.502;13.486;2023-02-16T13:09:58;101628.06;;;13.78;49.08
55610;BME280;41486;52.502;13.486;2023-02-16T13:12:33;101618.06;;;15.42;45.88
55610;BME280;41486;52.502;13.486;2023-02-16T13:15:08;101616.09;;;14.89;46.08